Time;durP1;ratioP1;P1;durP2;ratioP2;P2;SDS_P1;SDS_P2;PMS_P1;PMS_P2;Temp;Humidity;BMP_temperature;BMP_pressure;BME280_temperature;BME280_humidity;BME280_pressure;Samples;Min_cycle;Max_cycle;Signal;HPM_P1;HPM_P2
2021/11/16 00:00:12;;;;;;;22.90;11.80;;;7.70;99.90;;;;;;4931197;29;20094;-79
2021/11/16 06:01:10;;;;;;;22.42;11.30;;;6.60;99.90;;;;;;5609419;23;20574;-76
2021/11/16 06:03:38;;;;;;;21.63;11.70;;;6.60;99.90;;;;;;4936460;29;20087;-76
2021/11/16 06:06:05;;;;;;;22.42;11.27;;;6.60;99.90;;;;;;4936681;29;20051;-77
2021/11/16 06:08:32;;;;;;;20.75;10.88;;;6.60;99.90;;;;;;4936962;29;20143;-78
2021/11/16 06:10:59;;;;;;;19.77;10.95;;;6.60;99.90;;;;;;4936875;29;20580;-79
2021/11/16 06:13:26;;;;;;;22.58;12.63;;;6.50;99.90;;;;;;4936766;29;20146;-78
2021/11/16 06:15:53;;;;;;;21.15;12.00;;;6.50;99.90;;;;;;4936433;29;20138;-77
2021/11/16 06:18:23;;;;;;;22.00;11.75;;;6.50;99.90;;;;;;4936909;29;20464;-79
2021/11/16 06:20:54;;;;;;;22.15;11.48;;;6.50;99.90;;;;;;4936467;29;20131;-78
2021/11/16 06:23:21;;;;;;;23.42;12.45;;;6.50;99.90;;;;;;4936539;29;20059;-78
2021/11/16 06:25:48;;;;;;;23.23;11.55;;;6.40;99.90;;;;;;4936466;29;20575;-78
2021/11/16 06:28:15;;;;;;;23.65;12.05;;;6.40;99.90;;;;;;4936052;29;20141;-79
2021/11/16 06:30:43;;;;;;;21.63;11.55;;;6.40;99.90;;;;;;4936136;29;20058;-80
2021/11/16 06:33:10;;;;;;;22.80;11.70;;;6.40;99.90;;;;;;4936051;29;20679;-76
2021/11/16 06:35:39;;;;;;;20.88;11.43;;;6.40;99.90;;;;;;4936176;29;20086;-78
2021/11/16 06:38:06;;;;;;;19.98;10.70;;;6.30;99.90;;;;;;4935938;29;20126;-78
2021/11/16 06:40:33;;;;;;;22.75;11.70;;;6.30;99.90;;;;;;4935877;29;20150;-78
2021/11/16 06:43:00;;;;;;;21.55;11.27;;;6.30;99.90;;;;;;4935874;29;20127;-79
2021/11/16 06:45:27;;;;;;;20.10;10.95;;;6.30;99.90;;;;;;4936256;29;20058;-77
2021/11/16 06:47:54;;;;;;;21.10;10.88;;;6.30;99.90;;;;;;4936687;29;20135;-79
2021/11/16 06:50:21;;;;;;;18.38;10.40;;;6.30;99.90;;;;;;4936017;29;20433;-77
2021/11/16 06:52:50;;;;;;;19.52;10.40;;;6.30;99.90;;;;;;4935739;29;20058;-79
2021/11/16 06:55:17;;;;;;;18.80;10.63;;;6.30;99.90;;;;;;4935673;29;20146;-79
2021/11/16 06:57:47;;;;;;;19.98;10.35;;;6.30;99.90;;;;;;4935594;29;20140;-79
2021/11/16 07:00:15;;;;;;;20.55;10.50;;;6.30;99.90;;;;;;4935528;29;20078;-78
2021/11/16 07:02:43;;;;;;;18.38;10.23;;;6.30;99.90;;;;;;4935249;29;20505;-78
2021/11/16 07:05:12;;;;;;;20.75;10.38;;;6.30;99.90;;;;;;4935600;29;20048;-77
2021/11/16 07:07:44;;;;;;;19.42;9.88;;;6.30;99.90;;;;;;4935381;29;20138;-78
2021/11/16 07:10:16;;;;;;;17.48;9.93;;;6.30;99.90;;;;;;4935648;29;20135;-78
2021/11/16 07:12:44;;;;;;;19.02;10.05;;;6.30;99.90;;;;;;4935712;29;20146;-78
2021/11/16 07:15:12;;;;;;;16.80;9.45;;;6.30;99.90;;;;;;4935577;29;20056;-77
2021/11/16 07:17:39;;;;;;;17.70;9.52;;;6.30;99.90;;;;;;4935340;29;20119;-78
2021/11/16 07:20:09;;;;;;;17.80;9.27;;;6.30;99.90;;;;;;4935314;29;20127;-78
2021/11/16 07:22:37;;;;;;;17.15;9.20;;;6.30;99.90;;;;;;4935340;29;20056;-77
2021/11/16 07:25:08;;;;;;;15.82;9.18;;;6.30;99.90;;;;;;4935252;29;20074;-78
2021/11/16 07:27:40;;;;;;;17.20;9.73;;;6.30;99.90;;;;;;4935531;29;20051;-78
2021/11/16 07:30:10;;;;;;;17.25;9.57;;;6.30;99.90;;;;;;4935435;29;20154;-78
2021/11/16 07:32:47;;;;;;;17.40;9.25;;;6.30;99.90;;;;;;4935043;29;20375;-80
2021/11/16 07:35:16;;;;;;;17.33;9.18;;;6.30;99.90;;;;;;4935024;29;20569;-78
2021/11/16 07:37:47;;;;;;;15.85;9.00;;;6.40;99.90;;;;;;4935116;29;20054;-78
2021/11/16 07:40:17;;;;;;;15.32;8.35;;;6.40;99.90;;;;;;4935076;29;20050;-79
2021/11/16 07:42:52;;;;;;;15.57;8.88;;;6.40;99.90;;;;;;4935282;29;20089;-79
2021/11/16 07:45:21;;;;;;;;;;;6.40;99.90;;;;;;4936917;29;20075;-76
2021/11/16 07:47:53;;;;;;;16.55;8.85;;;6.40;99.90;;;;;;4935207;29;20427;-79
2021/11/16 07:50:43;;;;;;;15.07;8.25;;;6.30;99.90;;;;;;4934097;29;20052;-78
2021/11/16 07:53:15;;;;;;;17.10;9.35;;;6.30;99.90;;;;;;4934792;29;20087;-78
2021/11/16 07:55:47;;;;;;;17.13;9.02;;;6.40;99.90;;;;;;4935185;29;20571;-79
2021/11/16 07:58:16;;;;;;;16.23;8.25;;;6.30;99.90;;;;;;4934457;29;20044;-80
2021/11/16 08:00:47;;;;;;;15.15;7.85;;;6.30;99.90;;;;;;4934402;29;20111;-79
2021/11/16 08:03:18;;;;;;;14.90;8.30;;;6.30;99.90;;;;;;4935255;29;20067;-78
2021/11/16 08:05:56;;;;;;;15.07;8.13;;;6.40;99.90;;;;;;4935236;29;20063;-79
2021/11/16 08:08:37;;;;;;;16.95;9.00;;;6.40;99.90;;;;;;4934738;29;20134;-77
2021/11/16 08:11:18;;;;;;;15.88;8.40;;;6.40;99.90;;;;;;4934378;29;20048;-79
2021/11/16 08:13:59;;;;;;;16.38;8.98;;;6.40;99.90;;;;;;4934709;29;20515;-79
2021/11/16 08:16:28;;;;;;;14.82;8.30;;;6.40;99.90;;;;;;4934746;29;20071;-80
2021/11/16 08:19:00;;;;;;;15.00;8.10;;;6.40;99.90;;;;;;4934806;29;20079;-80
2021/11/16 08:21:28;;;;;;;15.90;8.40;;;6.40;99.90;;;;;;4935148;29;20047;-79
2021/11/16 08:23:58;;;;;;;16.63;9.10;;;6.40;99.90;;;;;;4934442;29;20513;-78
2021/11/16 08:26:30;;;;;;;16.40;8.43;;;6.50;99.90;;;;;;4934514;29;20047;-79
2021/11/16 08:28:59;;;;;;;17.88;9.13;;;6.40;99.90;;;;;;4923862;29;20079;-77
2021/11/16 08:31:32;;;;;;;19.83;9.50;;;6.50;99.90;;;;;;4915641;29;20467;-76
2021/11/16 08:34:00;;;;;;;17.92;8.70;;;6.50;99.90;;;;;;4915222;29;20123;-76
2021/11/16 08:36:30;;;;;;;16.25;8.25;;;6.50;99.90;;;;;;4915510;29;20143;-77
2021/11/16 08:38:58;;;;;;;17.55;8.95;;;6.50;99.90;;;;;;4915360;29;20569;-81
2021/11/16 08:41:32;;;;;;;17.00;9.05;;;6.50;99.90;;;;;;4915427;29;20592;-77
2021/11/16 08:44:14;;;;;;;17.92;9.57;;;6.50;99.90;;;;;;4915387;29;20478;-80
2021/11/16 08:46:44;;;;;;;15.73;8.05;;;6.50;99.90;;;;;;4931841;29;20472;-78
2021/11/16 08:49:24;;;;;;;14.30;7.22;;;6.50;99.90;;;;;;4935488;29;20142;-78
2021/11/16 08:51:53;;;;;;;15.30;7.60;;;6.50;99.90;;;;;;4934622;29;20584;-76
2021/11/16 08:54:29;;;;;;;12.35;7.00;;;6.60;99.90;;;;;;4933891;29;20066;-78
2021/11/16 08:56:56;;;;;;;14.35;8.13;;;6.60;99.90;;;;;;4934427;29;20144;-78
2021/11/16 08:59:25;;;;;;;14.43;7.68;;;6.70;99.90;;;;;;4922013;29;20052;-78
2021/11/16 09:01:59;;;;;;;15.40;7.95;;;6.70;99.90;;;;;;4922189;29;20143;-79
2021/11/16 09:04:29;;;;;;;15.93;8.27;;;6.80;99.90;;;;;;4934251;29;20115;-77
2021/11/16 09:06:57;;;;;;;15.02;7.95;;;6.80;99.90;;;;;;4934569;29;20134;-76
2021/11/16 09:09:25;;;;;;;15.85;8.43;;;6.80;99.90;;;;;;4934250;29;20138;-77
2021/11/16 09:12:00;;;;;;;17.88;9.45;;;6.70;99.90;;;;;;4934094;29;20498;-79
2021/11/16 09:14:30;;;;;;;17.45;9.10;;;6.70;99.90;;;;;;4920922;29;20423;-77
2021/11/16 09:16:58;;;;;;;18.23;8.40;;;6.60;99.90;;;;;;4915516;29;20144;-76
2021/11/16 09:19:28;;;;;;;19.52;9.02;;;6.60;99.90;;;;;;4915903;29;20135;-76
2021/11/16 09:21:56;;;;;;;17.27;8.80;;;6.60;99.90;;;;;;4916737;29;20135;-77
2021/11/16 09:24:33;;;;;;;19.23;9.80;;;6.60;99.90;;;;;;4918345;29;20090;-76
2021/11/16 09:27:12;;;;;;;18.40;9.45;;;6.60;99.90;;;;;;4917657;29;20103;-77
2021/11/16 09:29:48;;;;;;;18.73;8.88;;;6.60;99.90;;;;;;4935405;29;20051;-75
2021/11/16 09:32:16;;;;;;;16.83;8.70;;;6.60;99.90;;;;;;4937492;29;20585;-78
2021/11/16 09:34:47;;;;;;;18.42;9.20;;;6.60;99.90;;;;;;4937686;29;20142;-78
2021/11/16 09:37:15;;;;;;;18.33;8.85;;;6.70;99.90;;;;;;4937585;29;20146;-76
2021/11/16 09:39:46;;;;;;;18.70;8.52;;;6.70;99.90;;;;;;4937742;29;20147;-78
2021/11/16 09:42:16;;;;;;;15.73;8.48;;;6.70;99.90;;;;;;4938917;29;20406;-76
2021/11/16 09:44:48;;;;;;;16.67;8.32;;;6.70;99.90;;;;;;4919587;29;20052;-78
2021/11/16 09:47:19;;;;;;;21.77;8.93;;;6.70;99.90;;;;;;4918212;29;20052;-78
2021/11/16 09:49:49;;;;;;;18.67;9.13;;;6.80;99.90;;;;;;4918018;29;20139;-78
2021/11/16 09:52:19;;;;;;;18.15;8.73;;;6.80;99.90;;;;;;4918069;29;20158;-80
2021/11/16 09:54:53;;;;;;;17.45;9.32;;;6.80;99.90;;;;;;4918019;29;20060;-78
2021/11/16 09:57:25;;;;;;;19.92;9.32;;;6.90;99.90;;;;;;4919495;29;20043;-76
2021/11/16 10:00:06;;;;;;;15.43;7.78;;;6.90;99.90;;;;;;4918057;29;20064;-77
2021/11/16 10:02:33;;;;;;;16.80;8.65;;;6.90;99.90;;;;;;4917645;29;20048;-77
2021/11/16 10:05:06;;;;;;;20.92;9.77;;;6.90;99.90;;;;;;4917766;29;20079;-77
2021/11/16 10:07:35;;;;;;;18.55;8.93;;;6.90;99.90;;;;;;4917770;29;20154;-77
2021/11/16 10:10:04;;;;;;;17.40;8.77;;;6.90;99.90;;;;;;4917700;29;20052;-79
2021/11/16 10:12:40;;;;;;;17.92;9.18;;;6.90;99.90;;;;;;4917738;29;20151;-77
2021/11/16 10:15:13;;;;;;;17.02;8.57;;;6.90;99.90;;;;;;4918565;29;20104;-78
2021/11/16 10:17:41;;;;;;;18.58;9.45;;;6.90;99.90;;;;;;4919823;29;20048;-77
2021/11/16 10:20:11;;;;;;;17.23;8.43;;;7.00;99.90;;;;;;4917740;29;20147;-76
2021/11/16 10:22:38;;;;;;;21.40;10.48;;;7.00;99.90;;;;;;4917606;29;20048;-76
2021/11/16 10:25:11;;;;;;;19.45;8.90;;;7.10;99.90;;;;;;4917656;29;20147;-78
2021/11/16 10:27:40;;;;;;;21.00;10.18;;;7.10;99.90;;;;;;4917311;29;20139;-77
2021/11/16 10:30:27;;;;;;;17.60;9.00;;;7.10;99.90;;;;;;4917345;29;20131;-79
2021/11/16 10:33:11;;;;;;;18.73;9.40;;;7.00;99.90;;;;;;4918113;29;20131;-78
2021/11/16 10:35:41;;;;;;;19.00;9.50;;;7.00;99.90;;;;;;4918007;29;20501;-77
2021/11/16 10:38:11;;;;;;;16.20;8.27;;;7.00;99.90;;;;;;4917387;29;20143;-80
2021/11/16 10:40:39;;;;;;;16.20;8.13;;;7.10;99.90;;;;;;4917507;29;20070;-78
2021/11/16 10:43:08;;;;;;;18.40;9.10;;;7.20;99.90;;;;;;4917314;29;20139;-78
2021/11/16 10:45:41;;;;;;;19.92;9.50;;;7.30;99.90;;;;;;4918170;29;20143;-77
2021/11/16 10:48:10;;;;;;;19.48;9.13;;;7.30;99.90;;;;;;4923653;29;20051;-77
2021/11/16 10:50:42;;;;;;;19.88;9.57;;;7.30;99.90;;;;;;4921108;29;20438;-80
2021/11/16 10:53:12;;;;;;;16.90;8.75;;;7.30;99.90;;;;;;4918516;29;20100;-81
2021/11/16 10:55:44;;;;;;;19.95;9.52;;;7.40;99.90;;;;;;4929864;29;20131;-79
2021/11/16 10:58:13;;;;;;;19.80;8.95;;;7.40;99.90;;;;;;4918798;29;20139;-77
2021/11/16 11:00:49;;;;;;;19.05;9.35;;;7.50;99.90;;;;;;4913592;29;20064;-80
2021/11/16 11:03:24;;;;;;;18.60;10.02;;;7.50;99.90;;;;;;4932617;29;20492;-77
2021/11/16 11:05:55;;;;;;;20.77;10.38;;;7.50;99.90;;;;;;4934952;29;20055;-78
2021/11/16 11:08:36;;;;;;;18.75;9.10;;;7.50;99.90;;;;;;4933904;29;20142;-78
2021/11/16 11:11:06;;;;;;;17.80;8.85;;;7.50;99.90;;;;;;4932698;29;20478;-79
2021/11/16 11:13:35;;;;;;;18.15;9.20;;;7.50;99.90;;;;;;4931637;29;20100;-79
2021/11/16 11:16:04;;;;;;;14.90;8.07;;;7.50;99.90;;;;;;4936234;29;20040;-79
2021/11/16 11:18:37;;;;;;;15.57;8.27;;;7.40;99.90;;;;;;4928309;29;20162;-78
2021/11/16 11:21:07;;;;;;;14.32;7.47;;;7.50;99.90;;;;;;4920059;29;20056;-79
2021/11/16 11:23:42;;;;;;;16.02;8.07;;;7.50;99.90;;;;;;4912982;29;20442;-78
2021/11/16 11:26:38;;;;;;;16.00;8.10;;;7.60;99.90;;;;;;4920768;29;20131;-78
2021/11/16 11:29:17;;;;;;;15.75;8.10;;;7.60;99.90;;;;;;4932634;29;20059;-78
2021/11/16 11:31:48;;;;;;;14.85;7.80;;;7.60;99.90;;;;;;4932346;29;20375;-79
2021/11/16 11:34:15;;;;;;;14.52;7.70;;;7.60;99.90;;;;;;4931799;29;20115;-79
2021/11/16 11:36:43;;;;;;;15.18;7.68;;;7.60;99.90;;;;;;4932185;29;20466;-79
2021/11/16 11:39:23;;;;;;;15.43;7.13;;;7.60;99.90;;;;;;4918190;29;20163;-78
2021/11/16 11:41:57;;;;;;;13.45;7.38;;;7.50;99.90;;;;;;4912997;29;20502;-79
2021/11/16 11:44:26;;;;;;;12.32;6.35;;;7.50;99.90;;;;;;4912912;29;20048;-78
2021/11/16 11:47:00;;;;;;;13.93;6.78;;;7.50;99.90;;;;;;4912338;29;20056;-80
2021/11/16 11:49:29;;;;;;;12.13;6.35;;;7.50;99.90;;;;;;4913117;29;20297;-77
2021/11/16 11:52:00;;;;;;;11.95;6.25;;;7.40;99.90;;;;;;4913216;29;20135;-76
2021/11/16 11:54:28;;;;;;;11.85;6.43;;;7.40;99.90;;;;;;4913188;29;20055;-78
2021/11/16 11:56:56;;;;;;;12.30;6.53;;;7.40;99.90;;;;;;4912995;29;20482;-78
2021/11/16 11:59:24;;;;;;;12.13;6.03;;;7.30;99.90;;;;;;4913128;29;20143;-77
2021/11/16 12:01:52;;;;;;;12.73;6.30;;;7.30;99.90;;;;;;4912481;29;20513;-78
2021/11/16 12:04:21;;;;;;;12.80;6.82;;;7.30;99.90;;;;;;4913192;29;20140;-78
2021/11/16 12:06:55;;;;;;;12.80;6.82;;;7.30;99.90;;;;;;4912782;29;20063;-78
2021/11/16 12:09:23;;;;;;;12.73;5.97;;;7.30;99.90;;;;;;4912951;29;20455;-80
2021/11/16 12:11:51;;;;;;;12.63;6.55;;;7.30;99.90;;;;;;4913463;29;20398;-77
2021/11/16 12:14:32;;;;;;;11.95;6.00;;;7.30;99.90;;;;;;4915582;29;20052;-78
2021/11/16 12:17:04;;;;;;;13.45;6.05;;;7.30;99.90;;;;;;4932225;29;20498;-75
2021/11/16 12:19:52;;;;;;;11.23;6.07;;;7.30;99.90;;;;;;4932121;29;20063;-77
2021/11/16 12:22:26;;;;;;;11.60;6.10;;;7.30;99.90;;;;;;4932210;29;20059;-75
2021/11/16 12:24:56;;;;;;;13.23;6.75;;;7.30;99.90;;;;;;4931730;29;20051;-76
2021/11/16 12:27:31;;;;;;;15.20;7.40;;;7.40;99.90;;;;;;4931698;29;20052;-77
2021/11/16 12:29:59;;;;;;;;;;;7.30;99.90;;;;;;4932388;29;20569;-77
2021/11/16 12:32:29;;;;;;;16.42;7.43;;;7.30;99.90;;;;;;4931716;29;20045;-75
2021/11/16 12:35:04;;;;;;;13.15;6.82;;;7.20;99.90;;;;;;4931802;29;20557;-74
2021/11/16 12:37:44;;;;;;;29.23;13.73;;;7.20;99.90;;;;;;4931090;29;20111;-76
2021/11/16 12:40:20;;;;;;;15.98;7.70;;;7.20;99.90;;;;;;4926941;29;20086;-76
2021/11/16 12:43:14;;;;;;;14.52;6.88;;;7.10;99.90;;;;;;4912881;29;20502;-78
2021/11/16 12:45:45;;;;;;;15.65;7.50;;;7.10;99.90;;;;;;4923216;29;20484;-78
2021/11/16 12:48:14;;;;;;;16.10;7.55;;;7.10;99.90;;;;;;4931933;29;20138;-76
2021/11/16 12:51:07;;;;;;;16.27;7.88;;;7.10;99.90;;;;;;4931320;29;20147;-75
2021/11/16 12:53:59;;;;;;;15.85;8.25;;;7.10;99.90;;;;;;4931323;29;20110;-78
2021/11/16 12:57:20;;;;;;;13.30;6.60;;;7.20;99.90;;;;;;4928153;29;20102;-76
2021/11/16 13:00:04;;;;;;;12.70;6.57;;;7.20;99.90;;;;;;4881746;29;20113;-76
2021/11/16 13:02:34;;;;;;;;;;;7.20;99.90;;;;;;4876577;29;20053;-75
2021/11/16 13:05:04;;;;;;;13.43;6.70;;;7.30;99.90;;;;;;4910140;29;20432;-77
2021/11/16 13:07:36;;;;;;;14.65;7.13;;;7.30;99.90;;;;;;4932499;29;20413;-77
2021/11/16 13:10:11;;;;;;;14.52;6.65;;;7.40;99.90;;;;;;4924208;29;20281;-76
2021/11/16 13:12:52;;;;;;;14.13;6.70;;;7.40;99.90;;;;;;4931302;29;20501;-75
2021/11/16 13:15:44;;;;;;;14.45;7.22;;;7.40;99.90;;;;;;4925670;29;20058;-77
2021/11/16 13:18:30;;;;;;;13.30;7.10;;;7.40;99.90;;;;;;4927940;29;20075;-75
2021/11/16 13:21:11;;;;;;;14.68;6.75;;;7.40;99.90;;;;;;4932534;29;20063;-76
2021/11/16 13:23:45;;;;;;;12.38;6.20;;;7.40;99.90;;;;;;4929862;29;20501;-76
2021/11/16 13:26:24;;;;;;;12.07;6.20;;;7.40;99.90;;;;;;4924481;29;20052;-76
2021/11/16 13:28:58;;;;;;;12.43;6.20;;;7.40;99.90;;;;;;4924005;29;20054;-76
2021/11/16 13:31:41;;;;;;;15.38;7.07;;;7.40;99.90;;;;;;4934776;29;20055;-78
2021/11/16 13:34:12;;;;;;;13.98;7.25;;;7.40;99.90;;;;;;4932996;29;20095;-79
2021/11/16 13:36:53;;;;;;;12.40;6.03;;;7.40;99.90;;;;;;4929525;29;20599;-77
2021/11/16 13:39:35;;;;;;;12.35;6.40;;;7.40;99.90;;;;;;4934293;29;20583;-78
2021/11/16 13:42:09;;;;;;;14.52;6.70;;;7.40;99.90;;;;;;4934426;29;20043;-76
2021/11/16 13:44:40;;;;;;;12.48;6.28;;;7.40;99.90;;;;;;4915222;29;20055;-76
2021/11/16 13:47:11;;;;;;;13.10;6.35;;;7.40;99.90;;;;;;4914459;29;20138;-76
2021/11/16 13:49:41;;;;;;;12.05;6.28;;;7.40;99.90;;;;;;4914645;29;20503;-77
2021/11/16 13:52:23;;;;;;;10.75;5.95;;;7.40;99.90;;;;;;4914639;29;20131;-77
2021/11/16 13:54:55;;;;;;;13.75;6.30;;;7.40;99.90;;;;;;4914820;29;20056;-77
2021/11/16 13:57:25;;;;;;;11.55;5.70;;;7.40;99.90;;;;;;4915701;29;20143;-77
2021/11/16 14:00:00;;;;;;;11.32;5.57;;;7.40;99.90;;;;;;4914091;29;20685;-76
2021/11/16 14:02:28;;;;;;;;;;;7.40;99.90;;;;;;4914335;29;20064;-76
2021/11/16 14:04:59;;;;;;;12.27;5.38;;;7.40;99.90;;;;;;4914387;29;20011;-76
2021/11/16 14:07:26;;;;;;;10.60;5.72;;;7.50;99.90;;;;;;4914303;29;20471;-75
2021/11/16 14:10:16;;;;;;;11.82;5.95;;;7.50;99.90;;;;;;4914070;29;20127;-77
2021/11/16 14:12:44;;;;;;;12.10;5.32;;;7.50;99.90;;;;;;4914544;29;20506;-77
2021/11/16 14:15:18;;;;;;;13.82;5.63;;;7.50;99.90;;;;;;4915814;29;20480;-75
2021/11/16 14:18:01;;;;;;;11.07;5.18;;;7.50;99.90;;;;;;4915093;29;20059;-75
2021/11/16 14:20:28;;;;;;;10.55;5.15;;;7.50;99.90;;;;;;4914154;29;20139;-75
2021/11/16 14:22:57;;;;;;;10.27;5.00;;;7.60;99.90;;;;;;4914594;29;20143;-74
2021/11/16 14:25:28;;;;;;;9.68;4.93;;;7.60;99.90;;;;;;4914178;29;20059;-76
2021/11/16 14:28:05;;;;;;;9.27;5.20;;;7.60;99.90;;;;;;4915055;29;20058;-75
2021/11/16 14:30:35;;;;;;;9.60;4.68;;;7.60;99.90;;;;;;4914669;29;20108;-75
2021/11/16 14:33:05;;;;;;;8.82;4.50;;;7.60;99.90;;;;;;4925895;29;20054;-78
2021/11/16 14:35:33;;;;;;;8.30;4.25;;;7.60;99.90;;;;;;4917878;29;20138;-76
2021/11/16 14:38:00;;;;;;;8.85;4.50;;;7.60;99.90;;;;;;4921016;29;20150;-78
2021/11/16 14:40:30;;;;;;;8.30;4.90;;;7.60;99.90;;;;;;4914984;29;20496;-75
2021/11/16 14:42:59;;;;;;;9.00;4.07;;;7.60;99.90;;;;;;4921332;29;20131;-77
2021/11/16 14:45:29;;;;;;;8.88;4.45;;;7.60;99.90;;;;;;4914798;29;20048;-76
2021/11/16 14:48:01;;;;;;;10.25;5.50;;;7.60;99.90;;;;;;4924475;29;20123;-76
2021/11/16 14:50:34;;;;;;;9.10;5.07;;;7.70;99.90;;;;;;4915655;29;20048;-75
2021/11/16 14:53:10;;;;;;;8.63;4.70;;;7.70;99.90;;;;;;4933020;29;20059;-77
2021/11/16 14:55:40;;;;;;;7.90;4.15;;;7.70;99.90;;;;;;4914756;29;20052;-77
2021/11/16 14:58:12;;;;;;;9.65;4.60;;;7.70;99.90;;;;;;4914012;29;20052;-76
2021/11/16 15:00:46;;;;;;;8.93;4.70;;;7.70;99.90;;;;;;4914682;29;20056;-80
2021/11/16 15:03:16;;;;;;;8.10;4.23;;;7.70;99.90;;;;;;4913428;29;20127;-77
2021/11/16 15:05:48;;;;;;;10.35;4.78;;;7.70;99.90;;;;;;4913962;29;20148;-76
2021/11/16 15:08:22;;;;;;;7.95;4.20;;;7.80;99.90;;;;;;4920248;29;20040;-77
2021/11/16 15:10:59;;;;;;;8.00;4.35;;;7.70;99.90;;;;;;4926615;29;20584;-76
2021/11/16 15:13:27;;;;;;;8.68;4.75;;;7.80;99.90;;;;;;4924813;29;20048;-78
2021/11/16 15:15:55;;;;;;;9.60;5.15;;;7.70;99.90;;;;;;4932605;29;20565;-77
2021/11/16 15:18:23;;;;;;;7.88;4.60;;;7.70;99.90;;;;;;4930880;29;20571;-79
2021/11/16 15:20:59;;;;;;;8.70;4.70;;;7.70;99.90;;;;;;4932419;29;20511;-78
2021/11/16 15:23:32;;;;;;;9.73;5.32;;;7.70;99.90;;;;;;4932597;29;20063;-77
2021/11/16 15:26:05;;;;;;;8.75;4.50;;;7.70;99.90;;;;;;4932646;29;20481;-76
2021/11/16 15:28:36;;;;;;;9.35;5.03;;;7.70;99.90;;;;;;4932467;29;20091;-76
2021/11/16 15:31:07;;;;;;;8.60;4.90;;;7.70;99.90;;;;;;4923698;29;20083;-78
2021/11/16 15:33:38;;;;;;;7.55;4.43;;;7.70;99.90;;;;;;4913460;29;20134;-77
2021/11/16 15:36:12;;;;;;;9.43;4.93;;;7.70;99.90;;;;;;4928248;29;20119;-76
2021/11/16 15:38:48;;;;;;;8.10;4.50;;;7.70;99.90;;;;;;4932941;29;20131;-76
2021/11/16 15:41:27;;;;;;;9.18;4.57;;;7.60;99.90;;;;;;4932646;29;20431;-76
2021/11/16 15:44:14;;;;;;;7.70;4.18;;;7.60;99.90;;;;;;4932370;29;20079;-76
2021/11/16 15:47:22;;;;;;;7.53;4.32;;;7.70;99.90;;;;;;4932210;29;20562;-75
2021/11/16 15:50:08;;;;;;;7.60;4.03;;;7.70;99.90;;;;;;4920327;29;20062;-76
2021/11/16 15:53:08;;;;;;;9.48;5.22;;;7.70;99.90;;;;;;4924346;29;20122;-77
2021/11/16 15:58:32;;;;;;;8.60;4.53;;;7.70;99.90;;;;;;4913551;29;20531;-78
2021/11/16 16:01:05;;;;;;;9.68;5.43;;;7.60;99.90;;;;;;4912999;29;20084;-78
2021/11/16 16:03:35;;;;;;;9.90;5.38;;;7.60;99.90;;;;;;4913204;29;20075;-75
2021/11/16 16:06:11;;;;;;;10.90;5.60;;;7.60;99.90;;;;;;4913254;29;20783;-77
2021/11/16 16:08:46;;;;;;;10.70;5.40;;;7.50;99.90;;;;;;4924841;29;20048;-79
2021/11/16 16:11:21;;;;;;;10.10;5.13;;;7.50;99.90;;;;;;4925554;29;20417;-78
2021/11/16 16:13:51;;;;;;;;;;;7.50;99.90;;;;;;4923571;29;20052;-78
2021/11/16 16:16:24;;;;;;;11.02;5.53;;;7.50;99.90;;;;;;4896447;29;20011;-76
2021/11/16 16:18:55;;;;;;;11.55;5.65;;;7.40;99.90;;;;;;4913084;29;20409;-78
2021/11/16 16:21:22;;;;;;;9.45;5.45;;;7.50;99.90;;;;;;4912826;29;20143;-79
2021/11/16 16:23:50;;;;;;;10.50;5.43;;;7.40;99.90;;;;;;4912397;29;20494;-79
2021/11/16 16:26:21;;;;;;;9.82;5.32;;;7.40;99.90;;;;;;4916357;29;20048;-77
2021/11/16 16:28:53;;;;;;;10.38;5.40;;;7.40;99.90;;;;;;4929931;29;20138;-77
2021/11/16 16:31:22;;;;;;;9.10;4.95;;;7.40;99.90;;;;;;4932481;29;20151;-79
2021/11/16 16:33:49;;;;;;;10.30;5.85;;;7.30;99.90;;;;;;4933997;29;20047;-80
2021/11/16 16:36:17;;;;;;;10.98;5.55;;;7.30;99.90;;;;;;4917745;29;20062;-79
2021/11/16 16:38:45;;;;;;;7.90;4.72;;;7.30;99.90;;;;;;4916756;29;20139;-79
2021/11/16 16:41:23;;;;;;;8.68;4.90;;;7.30;99.90;;;;;;4929474;29;20050;-81
2021/11/16 16:43:55;;;;;;;9.57;5.07;;;7.30;99.90;;;;;;4922305;29;20135;-78
2021/11/16 16:46:22;;;;;;;9.50;4.90;;;7.20;99.90;;;;;;4934910;29;20059;-78
2021/11/16 16:48:50;;;;;;;8.70;4.78;;;7.20;99.90;;;;;;4928756;29;20581;-79
2021/11/16 16:51:18;;;;;;;9.57;4.53;;;7.20;99.90;;;;;;4915483;29;20059;-78
2021/11/16 16:53:47;;;;;;;8.77;4.80;;;7.20;99.90;;;;;;4931606;29;20044;-77
2021/11/16 16:56:17;;;;;;;9.70;5.03;;;7.10;99.90;;;;;;4934178;29;20515;-79
2021/11/16 16:58:46;;;;;;;8.45;4.95;;;7.10;99.90;;;;;;4934638;29;20074;-79
2021/11/16 17:01:15;;;;;;;8.65;4.80;;;7.10;99.90;;;;;;4931484;29;20062;-78
2021/11/16 17:03:42;;;;;;;9.45;4.90;;;7.10;99.90;;;;;;4925056;29;20104;-80
2021/11/16 17:06:09;;;;;;;9.65;5.65;;;7.10;99.90;;;;;;4916232;29;20056;-79
2021/11/16 17:08:38;;;;;;;10.00;5.53;;;7.10;99.90;;;;;;4925407;29;20490;-77
2021/11/16 17:11:07;;;;;;;10.23;5.65;;;7.10;99.90;;;;;;4917282;29;20206;-78
2021/11/16 17:13:35;;;;;;;10.40;5.30;;;7.10;99.90;;;;;;4916157;29;20100;-77
2021/11/16 17:16:03;;;;;;;10.35;5.30;;;7.10;99.90;;;;;;4924337;29;20084;-81
2021/11/16 17:18:34;;;;;;;9.15;4.93;;;7.00;99.90;;;;;;4914967;29;20047;-78
2021/11/16 17:21:02;;;;;;;10.45;5.07;;;7.00;99.90;;;;;;4915302;29;20909;-77
2021/11/16 17:23:29;;;;;;;10.75;5.78;;;7.00;99.90;;;;;;4927913;29;20139;-78
2021/11/16 17:25:57;;;;;;;9.90;5.28;;;7.00;99.90;;;;;;4925829;29;20111;-77
2021/11/16 17:28:27;;;;;;;9.90;5.63;;;7.00;99.90;;;;;;4930774;29;20047;-79
2021/11/16 17:30:55;;;;;;;8.07;5.15;;;7.00;99.90;;;;;;4933597;29;20577;-77
2021/11/16 17:33:22;;;;;;;9.68;5.15;;;7.00;99.90;;;;;;4921697;29;20127;-77
2021/11/16 17:35:50;;;;;;;9.73;5.72;;;7.00;99.90;;;;;;4932539;29;20117;-77
2021/11/16 17:38:17;;;;;;;10.93;5.75;;;7.00;99.90;;;;;;4932491;29;20576;-76
2021/11/16 17:40:44;;;;;;;9.73;5.50;;;7.00;99.90;;;;;;4932666;29;20154;-77
2021/11/16 17:43:11;;;;;;;9.88;5.60;;;7.00;99.90;;;;;;4933637;29;20138;-78
2021/11/16 17:45:38;;;;;;;11.32;6.00;;;6.90;99.90;;;;;;4934696;29;20140;-76
2021/11/16 17:48:06;;;;;;;11.25;6.50;;;6.90;99.90;;;;;;4933776;29;20155;-77
2021/11/16 17:50:35;;;;;;;9.55;5.57;;;6.90;99.90;;;;;;4935029;29;20485;-78
2021/11/16 17:53:04;;;;;;;10.18;5.22;;;6.90;99.90;;;;;;4933631;29;20043;-81
2021/11/16 17:55:32;;;;;;;12.00;6.50;;;6.90;99.90;;;;;;4927970;29;20052;-76
2021/11/16 17:58:00;;;;;;;10.93;6.10;;;6.90;99.90;;;;;;4926913;29;20597;-78
2021/11/16 18:00:28;;;;;;;9.38;5.82;;;6.90;99.90;;;;;;4922776;29;20127;-76
2021/11/16 18:02:57;;;;;;;10.43;5.63;;;6.90;99.90;;;;;;4933124;29;20087;-78
2021/11/16 18:05:39;;;;;;;10.70;5.80;;;6.90;99.90;;;;;;4932199;29;20051;-78
2021/11/16 18:08:11;;;;;;;9.77;5.72;;;7.00;99.90;;;;;;4928755;29;20071;-80
2021/11/16 18:10:47;;;;;;;11.57;6.53;;;7.00;99.90;;;;;;4930495;29;20508;-79
2021/11/16 18:13:16;;;;;;;10.07;6.10;;;7.00;99.90;;;;;;4933388;29;20066;-78
2021/11/16 18:15:43;;;;;;;11.20;6.38;;;6.90;99.90;;;;;;4929288;29;20135;-77
2021/11/16 18:18:11;;;;;;;10.77;6.22;;;7.00;99.90;;;;;;4926306;29;20510;-78
2021/11/16 18:20:41;;;;;;;13.10;6.75;;;7.00;99.90;;;;;;4929819;29;20454;-76
2021/11/16 18:23:12;;;;;;;13.52;6.75;;;7.00;99.90;;;;;;4932655;29;20573;-77
2021/11/16 18:25:42;;;;;;;13.18;6.75;;;7.00;99.90;;;;;;4931288;29;20052;-80
2021/11/16 18:28:10;;;;;;;10.50;6.47;;;7.00;99.90;;;;;;4931265;29;20048;-79
2021/11/16 18:30:41;;;;;;;10.85;6.10;;;7.00;99.90;;;;;;4932235;29;20515;-80
2021/11/16 18:33:10;;;;;;;11.88;5.97;;;7.00;99.90;;;;;;4932629;29;20051;-76
2021/11/16 18:35:38;;;;;;;10.98;6.35;;;7.00;99.90;;;;;;4932738;29;20597;-78
2021/11/16 18:38:07;;;;;;;11.98;6.97;;;7.00;99.90;;;;;;4920101;29;20063;-80
2021/11/16 18:40:40;;;;;;;13.27;7.25;;;7.00;99.90;;;;;;4914314;29;20105;-78
2021/11/16 18:43:12;;;;;;;11.88;6.72;;;7.00;99.90;;;;;;4930876;29;20054;-80
2021/11/16 18:45:46;;;;;;;12.35;6.45;;;7.00;99.90;;;;;;4918369;29;20052;-78
2021/11/16 18:48:18;;;;;;;11.35;6.85;;;7.00;99.90;;;;;;4931430;29;20140;-78
2021/11/16 18:50:45;;;;;;;11.43;6.50;;;6.90;99.90;;;;;;4932365;29;20052;-79
2021/11/16 18:53:12;;;;;;;10.52;6.05;;;6.90;99.90;;;;;;4932329;29;20168;-78
2021/11/16 18:55:47;;;;;;;10.85;6.07;;;6.90;99.90;;;;;;4931939;29;20058;-78
2021/11/16 18:58:15;;;;;;;10.95;6.50;;;6.90;99.90;;;;;;4926309;29;20470;-78
2021/11/16 19:00:43;;;;;;;10.40;6.30;;;7.00;99.90;;;;;;4932256;29;20064;-75
2021/11/16 19:03:12;;;;;;;10.95;6.38;;;7.00;99.90;;;;;;4931851;29;20167;-80
2021/11/16 19:05:39;;;;;;;12.20;6.75;;;7.00;99.90;;;;;;4928751;29;20139;-80
2021/11/16 19:08:06;;;;;;;12.98;7.45;;;7.00;99.90;;;;;;4915359;29;20088;-78
2021/11/16 19:10:33;;;;;;;14.32;8.32;;;7.00;99.90;;;;;;4912940;29;20044;-79
2021/11/16 19:13:02;;;;;;;12.38;6.88;;;7.00;99.90;;;;;;4912695;29;20102;-78